Time;durP1;ratioP1;P1;durP2;ratioP2;P2;SDS_P1;SDS_P2;PMS_P1;PMS_P2;Temp;Humidity;BMP_temperature;BMP_pressure;BME280_temperature;BME280_humidity;BME280_pressure;Samples;Min_cycle;Max_cycle;Signal;HPM_P1;HPM_P2
2023/01/08 00:00:30;;;;;;;4.80;3.47;;;9.20;99.90;;;;;;5012591;28;20209;-72
2023/01/08 00:02:56;;;;;;;5.07;3.83;;;9.20;99.90;;;;;;5014037;28;20272;-69
2023/01/08 00:05:22;;;;;;;5.20;3.70;;;9.20;99.90;;;;;;5014002;28;20205;-73
2023/01/08 00:07:47;;;;;;;5.33;4.17;;;9.20;99.90;;;;;;5012904;28;20228;-70
2023/01/08 00:10:13;;;;;;;6.33;4.20;;;9.10;99.90;;;;;;5013718;28;20288;-70
2023/01/08 00:12:38;;;;;;;5.23;3.83;;;9.10;99.90;;;;;;5012677;28;20208;-70
2023/01/08 00:15:05;;;;;;;4.87;3.50;;;9.10;99.90;;;;;;4995497;28;20236;-70
2023/01/08 00:17:31;;;;;;;4.77;3.77;;;9.00;99.90;;;;;;4994886;28;20208;-73
2023/01/08 00:19:56;;;;;;;5.13;3.77;;;9.00;99.90;;;;;;5009927;28;20232;-69
2023/01/08 00:22:22;;;;;;;5.73;3.83;;;9.00;99.90;;;;;;5012315;28;20213;-72
2023/01/08 00:24:47;;;;;;;6.27;3.90;;;9.00;99.90;;;;;;4994702;28;20287;-71
2023/01/08 00:27:13;;;;;;;4.40;3.43;;;9.00;99.90;;;;;;4994643;28;20169;-70
2023/01/08 00:29:39;;;;;;;5.17;3.70;;;9.00;99.90;;;;;;5012042;28;20165;-70
2023/01/08 00:32:04;;;;;;;5.77;3.70;;;9.00;99.90;;;;;;5011472;28;20236;-72
2023/01/08 00:34:30;;;;;;;7.10;4.33;;;8.90;99.90;;;;;;4994655;28;20212;-71
2023/01/08 00:36:55;;;;;;;5.13;3.90;;;8.90;99.90;;;;;;5011787;28;20308;-72
2023/01/08 00:39:21;;;;;;;4.77;3.63;;;8.80;99.90;;;;;;5011686;28;20173;-71
2023/01/08 00:41:48;;;;;;;5.57;3.90;;;8.80;99.90;;;;;;4994677;28;20618;-72
2023/01/08 00:44:14;;;;;;;7.37;4.50;;;8.80;99.90;;;;;;5012107;28;20205;-71
2023/01/08 00:46:39;;;;;;;5.03;3.80;;;8.80;99.90;;;;;;5011697;28;20296;-70
2023/01/08 00:49:05;;;;;;;7.27;4.20;;;8.80;99.90;;;;;;5011734;28;20653;-72
2023/01/08 00:51:30;;;;;;;5.73;4.00;;;8.80;99.90;;;;;;5010814;28;20213;-73
2023/01/08 00:53:56;;;;;;;7.00;4.17;;;8.80;99.90;;;;;;4994572;28;20181;-73
2023/01/08 00:56:22;;;;;;;5.23;3.70;;;8.80;99.90;;;;;;5011466;28;20221;-72
2023/01/08 00:58:47;;;;;;;4.93;3.83;;;8.70;99.90;;;;;;4994393;28;20213;-70
2023/01/08 01:01:14;;;;;;;5.30;4.20;;;8.70;99.90;;;;;;5010372;28;20220;-74
2023/01/08 01:03:40;;;;;;;3.97;3.37;;;8.70;99.90;;;;;;5011422;28;20243;-70
2023/01/08 01:06:07;;;;;;;5.23;3.90;;;8.70;99.90;;;;;;5011973;28;20200;-70
2023/01/08 01:08:33;;;;;;;5.83;4.40;;;8.60;99.90;;;;;;5011580;28;20755;-70
2023/01/08 01:10:59;;;;;;;9.40;4.90;;;8.60;99.90;;;;;;5011016;28;20609;-73
2023/01/08 01:13:24;;;;;;;7.67;4.47;;;8.50;99.90;;;;;;5011335;28;20209;-71
2023/01/08 01:15:58;;;;;;;5.37;4.33;;;8.50;99.90;;;;;;5011313;28;20212;-73
2023/01/08 01:18:25;;;;;;;5.37;4.20;;;8.50;99.90;;;;;;4993974;28;20189;-71
2023/01/08 01:20:50;;;;;;;6.33;4.77;;;8.50;99.90;;;;;;5011042;28;20189;-73
2023/01/08 01:23:16;;;;;;;6.13;4.67;;;8.50;99.90;;;;;;4993316;28;20212;-74
2023/01/08 01:25:42;;;;;;;8.07;4.90;;;8.50;99.90;;;;;;5011242;28;20227;-72
2023/01/08 01:28:07;;;;;;;6.93;4.83;;;8.50;99.90;;;;;;4993496;28;20702;-73
2023/01/08 01:30:33;;;;;;;6.20;4.97;;;8.50;99.90;;;;;;5010169;28;20219;-70
2023/01/08 01:32:58;;;;;;;5.63;4.57;;;8.50;99.90;;;;;;5010998;28;20652;-70
2023/01/08 01:35:24;;;;;;;6.40;4.60;;;8.40;99.90;;;;;;4983426;28;20240;-70
2023/01/08 01:37:50;;;;;;;5.97;4.87;;;8.50;99.90;;;;;;5011034;28;20213;-70
2023/01/08 01:40:15;;;;;;;8.53;4.67;;;8.40;99.90;;;;;;5009002;28;20585;-73
2023/01/08 01:42:42;;;;;;;6.33;4.63;;;8.40;99.90;;;;;;5011016;28;20217;-73
2023/01/08 01:45:23;;;;;;;6.13;4.50;;;8.40;99.90;;;;;;5009775;28;20177;-74
2023/01/08 01:48:19;;;;;;;7.30;4.70;;;8.30;99.90;;;;;;5012184;28;20208;-74
2023/01/08 01:50:48;;;;;;;7.60;5.03;;;8.20;99.90;;;;;;5009914;28;20287;-74
2023/01/08 01:53:21;;;;;;;7.80;5.50;;;8.20;99.90;;;;;;5010595;28;20228;-74
2023/01/08 01:55:47;;;;;;;5.53;4.50;;;8.20;99.90;;;;;;5011276;28;20209;-72
2023/01/08 01:58:15;;;;;;;7.57;5.03;;;8.10;99.90;;;;;;5011014;28;20223;-72
2023/01/08 02:00:42;;;;;;;9.13;5.70;;;8.10;99.90;;;;;;5009871;28;20300;-70
2023/01/08 02:03:09;;;;;;;7.00;5.43;;;8.10;99.90;;;;;;5008029;28;20251;-73
2023/01/08 02:05:53;;;;;;;5.47;4.63;;;8.10;99.90;;;;;;4990909;28;20220;-72
2023/01/08 02:08:36;;;;;;;6.47;5.20;;;8.00;99.90;;;;;;5010131;28;20624;-73
2023/01/08 02:11:18;;;;;;;6.07;5.23;;;8.00;99.90;;;;;;5008143;28;20263;-73
2023/01/08 02:13:52;;;;;;;8.93;5.43;;;8.00;99.90;;;;;;4990845;28;20212;-73
2023/01/08 02:16:20;;;;;;;9.60;5.77;;;8.00;99.90;;;;;;5010616;28;20284;-71
2023/01/08 02:18:49;;;;;;;7.00;5.33;;;8.00;99.90;;;;;;5010693;28;20211;-73
2023/01/08 02:21:35;;;;;;;7.93;5.33;;;7.90;99.90;;;;;;5009360;28;20195;-70
2023/01/08 02:24:19;;;;;;;7.43;5.33;;;7.90;99.90;;;;;;5009029;28;20177;-73
2023/01/08 02:26:47;;;;;;;8.03;5.47;;;7.90;99.90;;;;;;5008958;28;20204;-73
2023/01/08 02:29:20;;;;;;;8.00;5.77;;;7.90;99.90;;;;;;5009862;28;20213;-73
2023/01/08 02:31:46;;;;;;;7.87;6.00;;;7.80;99.90;;;;;;5007397;28;20217;-74
2023/01/08 02:34:13;;;;;;;10.00;6.40;;;7.80;99.90;;;;;;4992957;28;21709;-72
2023/01/08 02:36:43;;;;;;;7.33;5.80;;;7.80;99.90;;;;;;5010117;28;20215;-72
2023/01/08 02:39:45;;;;;;;7.93;5.83;;;7.80;99.90;;;;;;5008687;28;20169;-73
2023/01/08 02:42:22;;;;;;;8.00;5.93;;;7.70;99.90;;;;;;5009655;28;20584;-72
2023/01/08 02:44:56;;;;;;;7.10;6.17;;;7.70;99.90;;;;;;5007725;28;20180;-70
2023/01/08 02:47:53;;;;;;;9.63;6.87;;;7.70;99.90;;;;;;5008874;28;20225;-73
2023/01/08 02:50:28;;;;;;;7.37;5.77;;;7.70;99.90;;;;;;5004965;28;20214;-73
2023/01/08 02:52:59;;;;;;;8.33;6.00;;;7.70;99.90;;;;;;4992235;28;20231;-72
2023/01/08 02:55:27;;;;;;;7.53;5.87;;;7.60;99.90;;;;;;4992361;28;20209;-72
2023/01/08 02:57:53;;;;;;;9.77;6.37;;;7.60;99.90;;;;;;5008885;28;20205;-70
2023/01/08 03:00:19;;;;;;;7.67;5.90;;;7.60;99.90;;;;;;5009082;28;20213;-72
2023/01/08 03:02:46;;;;;;;8.30;6.00;;;7.60;99.90;;;;;;5010236;28;20572;-73
2023/01/08 03:05:32;;;;;;;8.17;5.63;;;7.60;99.90;;;;;;5009281;28;20228;-72
2023/01/08 03:07:58;;;;;;;7.73;6.17;;;7.50;99.90;;;;;;4991704;28;20197;-73
2023/01/08 03:10:26;;;;;;;8.17;5.93;;;7.50;99.90;;;;;;5010811;28;20209;-73
2023/01/08 03:13:00;;;;;;;8.60;6.47;;;7.50;99.90;;;;;;5009468;28;20675;-72
2023/01/08 03:15:41;;;;;;;7.00;6.30;;;7.50;99.90;;;;;;4992319;28;20223;-74
2023/01/08 03:18:11;;;;;;;8.43;6.10;;;7.50;99.90;;;;;;5009447;28;20543;-74
2023/01/08 03:20:38;;;;;;;8.17;6.00;;;7.40;99.90;;;;;;5005597;28;20217;-74
2023/01/08 03:23:08;;;;;;;9.17;6.87;;;7.50;99.90;;;;;;5009692;28;20223;-74
2023/01/08 03:25:38;;;;;;;8.37;5.80;;;7.50;99.90;;;;;;4992057;28;20240;-75
2023/01/08 03:28:09;;;;;;;7.63;6.43;;;7.40;99.90;;;;;;4990266;28;20208;-74
2023/01/08 03:30:38;;;;;;;8.13;6.43;;;7.40;99.90;;;;;;5001957;28;20271;-74
2023/01/08 03:33:07;;;;;;;9.13;6.63;;;7.40;99.90;;;;;;4986732;28;20565;-73
2023/01/08 03:35:35;;;;;;;9.83;6.87;;;7.40;99.90;;;;;;4990839;28;20731;-74
2023/01/08 03:38:13;;;;;;;9.20;6.27;;;7.40;99.90;;;;;;5001633;28;20211;-70
2023/01/08 03:40:45;;;;;;;8.43;7.00;;;7.40;99.90;;;;;;5002557;28;20231;-74
2023/01/08 03:43:10;;;;;;;8.30;6.33;;;7.40;99.90;;;;;;5007039;28;20240;-72
2023/01/08 03:45:41;;;;;;;8.53;6.77;;;7.30;99.90;;;;;;4987024;28;20236;-73
2023/01/08 03:48:08;;;;;;;8.77;7.13;;;7.30;99.90;;;;;;4986035;28;20181;-73
2023/01/08 03:50:34;;;;;;;9.57;6.70;;;7.40;99.90;;;;;;4984351;28;20343;-71
2023/01/08 03:53:00;;;;;;;8.60;6.97;;;7.30;99.90;;;;;;5003532;28;20359;-70
2023/01/08 03:55:25;;;;;;;8.97;7.10;;;7.30;99.90;;;;;;5007740;28;20212;-72
2023/01/08 03:57:51;;;;;;;8.37;6.90;;;7.40;99.90;;;;;;5004640;28;20258;-73
2023/01/08 04:00:17;;;;;;;8.03;6.53;;;7.30;99.90;;;;;;5003310;28;20177;-73
2023/01/08 04:02:42;;;;;;;9.30;6.70;;;7.40;99.90;;;;;;4991554;28;20204;-72
2023/01/08 04:05:09;;;;;;;9.83;6.70;;;7.30;99.90;;;;;;5022011;23;20718;-73
2023/01/08 04:07:35;;;;;;;8.37;6.63;;;7.30;99.90;;;;;;5032744;28;20319;-76
2023/01/08 04:10:01;;;;;;;8.30;6.80;;;7.30;99.90;;;;;;5028693;28;20240;-76
2023/01/08 04:12:27;;;;;;;9.63;6.90;;;7.30;99.90;;;;;;5035805;28;20735;-75
2023/01/08 04:14:52;;;;;;;9.23;7.27;;;7.30;99.90;;;;;;5052714;28;20224;-77
2023/01/08 04:17:18;;;;;;;10.17;7.13;;;7.30;99.90;;;;;;5031833;28;20212;-71
2023/01/08 04:19:43;;;;;;;8.90;7.00;;;7.30;99.90;;;;;;5033038;28;20615;-76
2023/01/08 04:22:10;;;;;;;9.10;6.60;;;7.30;99.90;;;;;;5028003;28;20212;-74
2023/01/08 04:24:36;;;;;;;8.80;6.83;;;7.30;99.90;;;;;;5025846;28;20223;-74
2023/01/08 04:27:01;;;;;;;7.73;6.73;;;7.20;99.90;;;;;;5030547;28;20184;-72
2023/01/08 04:29:27;;;;;;;11.03;7.17;;;7.30;99.90;;;;;;5026842;28;20989;-75
2023/01/08 04:31:52;;;;;;;8.63;6.83;;;7.30;99.90;;;;;;5027928;28;20208;-76
2023/01/08 04:34:18;;;;;;;7.37;6.47;;;7.20;99.90;;;;;;5028265;28;20212;-73
2023/01/08 04:36:44;;;;;;;9.60;6.90;;;7.30;99.90;;;;;;5026529;28;20724;-72
2023/01/08 04:39:10;;;;;;;8.60;7.00;;;7.20;99.90;;;;;;5029722;28;20208;-74
2023/01/08 04:41:36;;;;;;;10.20;7.37;;;7.20;99.90;;;;;;5032825;28;20184;-75
2023/01/08 04:44:02;;;;;;;8.63;7.17;;;7.20;99.90;;;;;;5030839;28;20224;-75
2023/01/08 04:46:27;;;;;;;8.10;6.90;;;7.10;99.90;;;;;;5026406;28;20212;-74
2023/01/08 04:48:53;;;;;;;11.83;7.87;;;7.20;99.90;;;;;;5030928;28;20210;-72
2023/01/08 04:51:20;;;;;;;8.80;6.97;;;7.10;99.90;;;;;;5043300;28;20176;-75
2023/01/08 04:53:46;;;;;;;9.47;7.60;;;7.20;99.90;;;;;;5041065;28;20694;-72
2023/01/08 04:56:12;;;;;;;8.90;6.87;;;7.20;99.90;;;;;;5035256;28;22018;-72
2023/01/08 04:58:39;;;;;;;9.60;6.67;;;7.10;99.90;;;;;;5018011;28;20216;-73
2023/01/08 05:01:19;;;;;;;8.33;7.07;;;7.20;99.90;;;;;;5018171;28;20279;-74
2023/01/08 05:03:44;;;;;;;11.73;7.30;;;7.20;99.90;;;;;;5029998;28;20253;-75
2023/01/08 05:06:10;;;;;;;9.37;6.83;;;7.20;99.90;;;;;;5020766;28;20177;-73
2023/01/08 05:08:36;;;;;;;9.50;6.83;;;7.20;99.90;;;;;;5018707;28;20181;-73
2023/01/08 05:11:03;;;;;;;9.90;7.40;;;7.20;99.90;;;;;;5027239;28;20246;-74
2023/01/08 05:13:29;;;;;;;8.07;6.50;;;7.20;99.90;;;;;;5027517;28;20246;-72
2023/01/08 05:15:59;;;;;;;11.10;7.40;;;7.20;99.90;;;;;;5019388;28;20291;-73
2023/01/08 05:18:25;;;;;;;9.20;6.77;;;7.20;99.90;;;;;;5024109;28;20176;-72
2023/01/08 05:20:50;;;;;;;8.43;6.40;;;7.20;99.90;;;;;;5026179;28;20180;-73
2023/01/08 05:23:16;;;;;;;7.80;7.00;;;7.20;99.90;;;;;;5023451;28;20259;-72
2023/01/08 05:25:41;;;;;;;9.20;6.70;;;7.20;99.90;;;;;;5020035;28;20250;-74
2023/01/08 05:28:07;;;;;;;7.83;6.30;;;7.20;99.90;;;;;;5015205;28;20689;-71
2023/01/08 05:30:33;;;;;;;10.60;6.53;;;7.30;99.90;;;;;;5026584;28;20586;-73
2023/01/08 05:32:59;;;;;;;9.37;6.90;;;7.30;99.90;;;;;;5016575;28;20178;-73
2023/01/08 05:35:25;;;;;;;8.80;6.83;;;7.30;99.90;;;;;;5023856;28;20591;-72
2023/01/08 05:37:50;;;;;;;10.03;7.30;;;7.30;99.90;;;;;;5025878;28;20208;-72
2023/01/08 05:40:16;;;;;;;9.50;7.10;;;7.30;99.90;;;;;;5030529;28;20290;-74
2023/01/08 05:42:42;;;;;;;9.60;6.93;;;7.30;99.90;;;;;;5025583;28;20217;-71
2023/01/08 05:45:08;;;;;;;9.40;6.63;;;7.40;99.90;;;;;;5026224;28;20204;-73
2023/01/08 05:47:34;;;;;;;7.70;6.50;;;7.40;99.90;;;;;;5031455;28;20208;-73
2023/01/08 05:50:00;;;;;;;9.77;6.67;;;7.40;99.90;;;;;;5028296;28;20204;-74
2023/01/08 05:52:26;;;;;;;8.40;6.17;;;7.50;99.90;;;;;;5031588;28;20211;-72
2023/01/08 05:54:52;;;;;;;8.53;6.27;;;7.50;99.90;;;;;;5030373;28;20204;-72
2023/01/08 05:57:17;;;;;;;8.33;5.80;;;7.50;99.90;;;;;;5030838;28;20178;-71
2023/01/08 05:59:43;;;;;;;9.10;6.60;;;7.50;99.90;;;;;;5029132;28;20184;-72
2023/01/08 06:02:09;;;;;;;8.97;6.30;;;7.60;99.90;;;;;;5031389;28;20220;-73
2023/01/08 06:04:34;;;;;;;9.17;6.30;;;7.60;99.90;;;;;;5030172;28;20424;-71
2023/01/08 06:07:00;;;;;;;9.20;6.17;;;7.60;99.90;;;;;;5030516;28;20208;-73
2023/01/08 06:09:25;;;;;;;7.80;5.83;;;7.60;99.90;;;;;;5030754;28;20590;-74
2023/01/08 06:11:52;;;;;;;8.70;6.10;;;7.60;99.90;;;;;;5032199;28;20200;-71
2023/01/08 06:14:17;;;;;;;8.27;6.10;;;7.70;99.90;;;;;;5023369;28;20204;-73
2023/01/08 06:16:43;;;;;;;6.40;5.80;;;7.70;99.90;;;;;;5031101;28;20262;-73
2023/01/08 06:19:10;;;;;;;8.80;6.03;;;7.60;99.90;;;;;;5029855;28;20255;-75
2023/01/08 06:21:35;;;;;;;7.47;5.67;;;7.70;99.90;;;;;;5030957;28;20205;-71
2023/01/08 06:24:01;;;;;;;6.17;5.43;;;7.70;99.90;;;;;;5032989;28;20212;-73
2023/01/08 06:26:26;;;;;;;6.53;5.33;;;7.70;99.90;;;;;;5035059;28;20204;-72
2023/01/08 06:28:52;;;;;;;9.23;6.03;;;7.70;99.90;;;;;;5032684;28;20212;-76
2023/01/08 06:31:17;;;;;;;8.40;6.27;;;7.70;99.90;;;;;;5025112;28;20208;-70
2023/01/08 06:33:43;;;;;;;6.50;5.20;;;7.80;99.90;;;;;;5033489;28;20207;-72
2023/01/08 06:36:09;;;;;;;7.27;5.40;;;7.70;99.90;;;;;;5029001;28;20555;-73
2023/01/08 06:38:35;;;;;;;6.30;5.40;;;7.80;99.90;;;;;;5031342;28;20176;-73
2023/01/08 06:41:09;;;;;;;5.90;4.90;;;7.80;99.90;;;;;;5033476;28;20219;-76
2023/01/08 06:43:36;;;;;;;7.90;5.40;;;7.80;99.90;;;;;;5027656;28;20598;-75
2023/01/08 06:46:07;;;;;;;5.80;5.07;;;7.80;99.90;;;;;;5030414;28;20208;-75
2023/01/08 06:48:33;;;;;;;8.47;5.20;;;7.80;99.90;;;;;;5033062;28;20204;-74
2023/01/08 06:51:00;;;;;;;5.87;5.00;;;7.80;99.90;;;;;;5029082;28;20190;-71
2023/01/08 06:53:25;;;;;;;10.37;5.73;;;7.80;99.90;;;;;;5033238;28;20286;-75
2023/01/08 06:55:55;;;;;;;6.43;4.87;;;7.80;99.90;;;;;;5034742;28;20295;-74
2023/01/08 06:58:22;;;;;;;7.57;5.10;;;7.90;99.90;;;;;;5029121;28;20625;-72
2023/01/08 07:00:47;;;;;;;5.27;4.63;;;7.80;99.90;;;;;;5029958;28;20200;-75
2023/01/08 07:03:13;;;;;;;6.30;4.80;;;7.80;99.90;;;;;;5028583;28;20258;-75
2023/01/08 07:05:39;;;;;;;6.37;4.40;;;7.90;99.90;;;;;;5029335;28;20211;-75
2023/01/08 07:08:05;;;;;;;6.63;5.00;;;7.90;99.90;;;;;;5037356;28;20215;-74
2023/01/08 07:10:30;;;;;;;6.73;5.10;;;7.90;99.90;;;;;;5022402;28;20583;-74
2023/01/08 07:12:56;;;;;;;5.73;5.00;;;7.90;99.90;;;;;;5030188;28;20619;-75
2023/01/08 07:15:22;;;;;;;6.73;4.83;;;7.90;99.90;;;;;;5031371;28;20196;-72
2023/01/08 07:17:48;;;;;;;5.50;4.77;;;7.90;99.90;;;;;;5031155;28;20579;-73
2023/01/08 07:20:14;;;;;;;6.63;4.90;;;7.90;99.90;;;;;;5028627;28;20208;-74
2023/01/08 07:22:39;;;;;;;6.23;4.87;;;7.90;99.90;;;;;;5026152;28;20281;-71
2023/01/08 07:25:06;;;;;;;5.97;4.70;;;7.90;99.90;;;;;;5035251;28;20241;-71
2023/01/08 07:27:31;;;;;;;5.13;4.60;;;8.00;99.90;;;;;;5035886;28;20211;-74
2023/01/08 07:29:57;;;;;;;5.90;4.57;;;8.00;99.90;;;;;;5032503;28;20635;-73
2023/01/08 07:32:23;;;;;;;6.70;5.00;;;8.00;99.90;;;;;;5033540;28;20218;-71
2023/01/08 07:34:48;;;;;;;7.33;4.93;;;8.00;99.90;;;;;;5031759;28;20590;-73
2023/01/08 07:37:14;;;;;;;7.97;4.97;;;8.00;99.90;;;;;;5035961;28;20214;-71
2023/01/08 07:39:40;;;;;;;5.90;4.60;;;8.10;99.90;;;;;;5048870;28;20231;-75
2023/01/08 07:42:05;;;;;;;7.13;4.83;;;8.10;99.90;;;;;;5070905;28;20178;-75
2023/01/08 07:44:31;;;;;;;6.13;4.80;;;8.10;99.90;;;;;;5042217;28;20264;-72
2023/01/08 07:46:56;;;;;;;7.20;4.70;;;8.00;99.90;;;;;;5041576;28;20219;-72
2023/01/08 07:49:22;;;;;;;6.47;4.60;;;8.00;99.90;;;;;;5059287;28;20234;-72
2023/01/08 07:51:48;;;;;;;5.37;4.57;;;8.00;99.90;;;;;;5042507;28;20234;-73
2023/01/08 07:54:14;;;;;;;7.50;5.53;;;8.00;99.90;;;;;;5043489;28;20253;-75
2023/01/08 07:56:40;;;;;;;5.93;5.20;;;8.00;99.90;;;;;;5044455;28;20271;-73
2023/01/08 07:59:05;;;;;;;5.67;4.57;;;8.00;99.90;;;;;;5060691;28;20215;-71
2023/01/08 08:01:31;;;;;;;8.70;7.03;;;8.00;99.90;;;;;;5038314;28;20211;-72
2023/01/08 08:03:56;;;;;;;7.50;5.60;;;8.00;99.90;;;;;;5038128;28;20228;-72
2023/01/08 08:06:22;;;;;;;7.83;5.77;;;8.00;99.90;;;;;;5036101;28;20179;-70
2023/01/08 08:08:48;;;;;;;7.53;4.70;;;7.90;99.90;;;;;;5039405;28;20258;-71
2023/01/08 08:11:13;;;;;;;6.47;5.03;;;7.90;99.90;;;;;;5041817;28;20220;-74
2023/01/08 08:13:43;;;;;;;5.97;4.93;;;8.00;99.90;;;;;;5038979;28;20215;-71
2023/01/08 08:16:10;;;;;;;5.30;4.70;;;7.90;99.90;;;;;;5041864;28;20299;-74
2023/01/08 08:18:36;;;;;;;6.40;4.57;;;7.90;99.90;;;;;;5044156;28;20219;-71
2023/01/08 08:21:02;;;;;;;8.27;5.27;;;8.00;99.90;;;;;;5038940;28;20238;-72
2023/01/08 08:23:28;;;;;;;6.43;4.80;;;8.00;99.90;;;;;;5038182;28;20235;-72
2023/01/08 08:25:54;;;;;;;6.47;5.10;;;7.90;99.90;;;;;;5048182;28;20222;-71
2023/01/08 08:28:20;;;;;;;8.40;5.27;;;8.00;99.90;;;;;;5056351;28;20687;-73
2023/01/08 08:30:46;;;;;;;5.50;4.70;;;8.00;99.90;;;;;;5036345;28;20223;-72
2023/01/08 08:33:12;;;;;;;6.60;4.77;;;7.90;99.90;;;;;;5044010;28;20171;-71
2023/01/08 08:35:38;;;;;;;7.13;4.97;;;7.90;99.90;;;;;;5059550;28;20501;-74
2023/01/08 08:38:04;;;;;;;6.77;4.80;;;8.00;99.90;;;;;;5037581;28;20250;-72
2023/01/08 08:40:30;;;;;;;6.80;5.33;;;8.00;99.90;;;;;;5055881;28;20634;-74
2023/01/08 08:43:00;;;;;;;7.27;5.13;;;8.00;99.90;;;;;;5054185;28;20265;-73
2023/01/08 08:45:26;;;;;;;7.23;4.93;;;8.00;99.90;;;;;;5038899;28;20717;-71
2023/01/08 08:47:52;;;;;;;7.53;5.63;;;8.00;99.90;;;;;;5040458;28;20206;-75
2023/01/08 08:50:19;;;;;;;6.27;5.13;;;8.10;99.90;;;;;;5035352;28;20598;-73
2023/01/08 08:52:45;;;;;;;6.77;4.57;;;8.10;99.90;;;;;;5059444;28;20214;-71
2023/01/08 08:55:16;;;;;;;6.30;5.03;;;8.10;99.90;;;;;;5036845;28;20223;-75
2023/01/08 08:57:42;;;;;;;5.93;4.80;;;8.10;99.90;;;;;;5037402;28;20218;-73
2023/01/08 09:00:08;;;;;;;5.90;4.90;;;8.10;99.90;;;;;;5052597;28;20420;-73
2023/01/08 09:02:34;;;;;;;5.57;4.67;;;8.10;99.90;;;;;;5037993;28;20288;-72
2023/01/08 09:05:00;;;;;;;6.20;4.93;;;8.10;99.90;;;;;;5035293;28;20701;-74
2023/01/08 09:07:25;;;;;;;7.77;5.07;;;8.10;99.90;;;;;;5037322;28;20212;-74
2023/01/08 09:09:51;;;;;;;7.07;5.00;;;8.10;99.90;;;;;;5038916;28;20260;-72
2023/01/08 09:12:17;;;;;;;8.40;5.10;;;8.10;99.90;;;;;;5033656;28;20186;-76
2023/01/08 09:14:42;;;;;;;6.67;4.67;;;8.10;99.90;;;;;;5039610;28;20214;-74
2023/01/08 09:17:08;;;;;;;7.87;4.70;;;8.20;99.90;;;;;;5035815;28;20631;-76
2023/01/08 09:19:34;;;;;;;6.90;4.73;;;8.20;99.90;;;;;;5036098;28;20216;-73
2023/01/08 09:22:01;;;;;;;5.97;4.70;;;8.20;99.90;;;;;;5040313;28;20246;-75
2023/01/08 09:24:26;;;;;;;8.13;4.73;;;8.30;99.90;;;;;;5033022;28;20207;-73
2023/01/08 09:26:53;;;;;;;5.63;4.53;;;8.30;99.90;;;;;;5044061;28;20183;-77
2023/01/08 09:29:19;;;;;;;6.20;4.97;;;8.30;99.90;;;;;;5048015;28;20662;-75
2023/01/08 09:31:45;;;;;;;7.40;4.70;;;8.40;99.90;;;;;;5041631;28;20215;-74
2023/01/08 09:34:11;;;;;;;7.03;4.63;;;8.40;99.90;;;;;;5037533;28;20298;-73
2023/01/08 09:36:37;;;;;;;5.60;4.80;;;8.40;99.90;;;;;;5030815;28;20316;-75
2023/01/08 09:39:03;;;;;;;5.70;3.90;;;8.40;99.90;;;;;;5041133;28;20180;-71
2023/01/08 09:41:35;;;;;;;6.90;4.50;;;8.40;99.90;;;;;;5035068;28;20689;-74
2023/01/08 09:44:04;;;;;;;5.97;4.40;;;8.40;99.90;;;;;;5036940;28;20223;-73
2023/01/08 09:46:30;;;;;;;7.17;5.20;;;8.40;99.90;;;;;;5043193;28;20230;-74
2023/01/08 09:49:03;;;;;;;6.27;5.17;;;8.40;99.90;;;;;;5030893;28;20726;-74
2023/01/08 09:51:36;;;;;;;6.37;5.20;;;8.40;99.90;;;;;;5038785;28;20222;-72
2023/01/08 09:54:04;;;;;;;5.57;4.50;;;8.40;99.90;;;;;;5039607;28;20226;-73
2023/01/08 09:56:33;;;;;;;5.63;4.33;;;8.40;99.90;;;;;;5038038;28;20295;-72
2023/01/08 09:59:01;;;;;;;6.20;5.00;;;8.40;99.90;;;;;;5034657;28;20207;-77
2023/01/08 10:01:35;;;;;;;5.60;4.37;;;8.40;99.90;;;;;;5035754;28;20597;-76
2023/01/08 10:04:22;;;;;;;5.43;4.30;;;8.40;99.90;;;;;;5034655;28;20606;-73
2023/01/08 10:06:48;;;;;;;6.30;4.03;;;8.40;99.90;;;;;;5029013;28;20216;-74
2023/01/08 10:09:14;;;;;;;6.27;4.20;;;8.40;99.90;;;;;;5033825;28;20720;-73
2023/01/08 10:11:46;;;;;;;4.70;4.20;;;8.40;99.90;;;;;;5036372;28;20186;-73
2023/01/08 10:14:28;;;;;;;5.67;4.17;;;8.40;99.90;;;;;;5030721;28;20261;-75
2023/01/08 10:17:01;;;;;;;5.27;4.53;;;8.40;99.90;;;;;;5028878;28;20216;-72
2023/01/08 10:19:27;;;;;;;7.93;5.43;;;8.40;99.90;;;;;;5042618;28;20594;-73
2023/01/08 10:21:53;;;;;;;8.17;5.30;;;8.40;99.90;;;;;;5062423;22;20226;-74
2023/01/08 10:24:32;;;;;;;5.70;4.80;;;8.40;99.90;;;;;;5047304;28;20653;-70
2023/01/08 10:27:11;;;;;;;6.83;4.83;;;8.50;99.90;;;;;;5070520;28;20202;-69
2023/01/08 10:29:38;;;;;;;6.33;4.93;;;8.80;99.90;;;;;;5069535;28;20221;-71
2023/01/08 10:32:28;;;;;;;6.97;5.13;;;8.80;99.90;;;;;;5048727;28;20217;-71
2023/01/08 10:34:57;;;;;;;8.47;4.60;;;8.80;99.90;;;;;;5065946;28;20202;-69
2023/01/08 10:37:30;;;;;;;6.40;4.93;;;8.80;99.90;;;;;;5072864;28;20844;-72
2023/01/08 10:40:21;;;;;;;7.03;5.00;;;8.80;99.90;;;;;;5072797;28;20207;-69
2023/01/08 10:42:48;;;;;;;7.53;5.07;;;8.80;99.90;;;;;;5070616;28;20226;-71
2023/01/08 10:45:26;;;;;;;8.60;5.07;;;8.70;99.90;;;;;;5071454;28;20175;-70
2023/01/08 10:47:55;;;;;;;8.27;5.90;;;8.70;99.90;;;;;;5051438;28;20175;-69
2023/01/08 10:50:27;;;;;;;6.63;5.27;;;8.80;99.90;;;;;;5047968;28;20234;-70
2023/01/08 10:53:04;;;;;;;8.03;6.13;;;8.80;99.90;;;;;;5050444;28;20215;-71
2023/01/08 10:55:36;;;;;;;8.47;5.20;;;8.80;99.90;;;;;;5067785;28;20214;-70
2023/01/08 10:58:19;;;;;;;9.07;5.60;;;8.80;99.90;;;;;;5068110;28;20203;-71
2023/01/08 11:00:45;;;;;;;8.10;5.60;;;8.80;99.90;;;;;;5068761;28;20260;-70
2023/01/08 11:03:30;;;;;;;6.67;5.60;;;8.70;99.90;;;;;;5069298;28;20211;-71
2023/01/08 11:05:56;;;;;;;7.03;5.13;;;8.60;99.90;;;;;;5065965;28;20223;-71
2023/01/08 11:08:23;;;;;;;8.63;5.67;;;8.70;99.90;;;;;;5052852;28;20239;-71
2023/01/08 11:11:00;;;;;;;6.37;5.23;;;8.70;99.90;;;;;;5050247;28;20236;-71
2023/01/08 11:13:27;;;;;;;6.93;5.10;;;8.60;99.90;;;;;;5070134;28;20206;-70
2023/01/08 11:16:09;;;;;;;7.07;5.17;;;8.70;99.90;;;;;;5065556;28;20203;-70
2023/01/08 11:18:45;;;;;;;8.47;5.80;;;8.70;99.90;;;;;;5050488;28;20210;-71
2023/01/08 11:21:20;;;;;;;5.77;4.87;;;8.90;99.90;;;;;;5052917;28;20211;-71
2023/01/08 11:23:46;;;;;;;8.63;6.23;;;9.00;99.90;;;;;;5074440;28;20209;-71
2023/01/08 11:26:17;;;;;;;9.23;5.43;;;9.00;99.90;;;;;;5073171;28;20668;-70
2023/01/08 11:28:49;;;;;;;8.63;5.37;;;9.00;99.90;;;;;;5074180;28;20206;-70
2023/01/08 11:31:27;;;;;;;6.73;4.90;;;9.10;99.90;;;;;;5065302;28;20211;-70
2023/01/08 11:34:02;;;;;;;7.03;5.23;;;9.00;99.90;;;;;;5070931;28;20195;-70
2023/01/08 11:36:46;;;;;;;7.70;5.17;;;9.10;99.90;;;;;;5066147;28;20286;-71
2023/01/08 11:39:12;;;;;;;7.73;5.47;;;9.10;99.90;;;;;;5065835;28;20167;-72
2023/01/08 11:41:50;;;;;;;8.07;5.53;;;9.20;99.90;;;;;;5054050;28;20335;-70
2023/01/08 11:44:28;;;;;;;7.83;4.83;;;9.30;99.90;;;;;;5065915;28;20211;-72
2023/01/08 11:47:08;;;;;;;6.17;4.80;;;9.20;99.90;;;;;;5051854;28;20206;-69
2023/01/08 11:50:17;;;;;;;6.23;5.20;;;9.10;99.90;;;;;;5067328;28;20199;-69
2023/01/08 11:53:10;;;;;;;7.47;5.23;;;9.20;99.90;;;;;;4988106;28;20594;-71
2023/01/08 11:55:41;;;;;;;7.20;4.97;;;9.10;99.90;;;;;;4995035;28;20205;-71
2023/01/08 11:58:44;;;;;;;7.20;5.23;;;9.00;99.90;;;;;;5049248;28;20206;-72
2023/01/08 12:01:25;;;;;;;8.73;5.37;;;9.10;99.90;;;;;;5074854;28;20210;-71
2023/01/08 12:04:14;;;;;;;7.03;5.50;;;9.10;99.90;;;;;;5065248;28;20214;-70
2023/01/08 12:06:57;;;;;;;6.70;5.17;;;9.20;99.90;;;;;;5043891;28;20210;-71
2023/01/08 12:09:40;;;;;;;5.90;4.93;;;9.30;99.90;;;;;;5049721;28;20264;-71
2023/01/08 12:12:21;;;;;;;5.43;4.83;;;9.40;99.90;;;;;;5067348;28;20542;-72
2023/01/08 12:15:16;;;;;;;6.70;4.80;;;9.30;99.90;;;;;;5071275;28;20211;-72
2023/01/08 12:17:48;;;;;;;6.80;5.20;;;9.50;99.90;;;;;;5062639;28;20199;-71
2023/01/08 12:20:28;;;;;;;7.67;5.07;;;9.60;99.90;;;;;;5062473;28;20693;-74
2023/01/08 12:23:18;;;;;;;8.17;5.60;;;9.60;99.90;;;;;;5064205;28;20210;-72
2023/01/08 12:25:44;;;;;;;9.90;4.90;;;9.60;99.90;;;;;;5059689;28;20591;-73
2023/01/08 12:28:16;;;;;;;6.47;5.10;;;9.60;99.90;;;;;;5066642;28;20278;-72
2023/01/08 12:30:46;;;;;;;6.40;5.23;;;9.60;99.90;;;;;;5068751;28;20570;-72
2023/01/08 12:33:30;;;;;;;6.13;4.87;;;9.70;99.90;;;;;;5070198;28;20166;-72
2023/01/08 12:36:00;;;;;;;7.87;4.97;;;9.60;99.90;;;;;;5070099;28;20244;-73
2023/01/08 12:38:31;;;;;;;7.47;4.77;;;9.70;99.90;;;;;;5070939;28;20203;-73
2023/01/08 12:41:05;;;;;;;8.70;5.47;;;9.70;99.90;;;;;;5067945;28;20417;-72
2023/01/08 12:43:55;;;;;;;8.23;5.07;;;9.70;99.90;;;;;;5071962;28;20240;-70
2023/01/08 12:46:23;;;;;;;6.73;5.13;;;9.60;99.90;;;;;;5067048;28;20203;-72
2023/01/08 12:48:51;;;;;;;6.77;5.50;;;9.60;99.90;;;;;;5072342;28;20681;-74
2023/01/08 12:51:54;;;;;;;9.43;5.27;;;9.70;99.90;;;;;;5067098;28;20191;-74
2023/01/08 12:54:22;;;;;;;7.20;4.77;;;9.70;99.90;;;;;;5069128;28;20171;-74
2023/01/08 12:57:10;;;;;;;8.07;5.40;;;9.70;99.90;;;;;;5073031;28;20174;-73
2023/01/08 12:59:57;;;;;;;6.40;4.97;;;9.60;99.90;;;;;;5051688;28;20211;-71
2023/01/08 13:02:45;;;;;;;7.00;5.30;;;9.60;99.90;;;;;;5068261;28;20218;-72
2023/01/08 13:05:15;;;;;;;6.33;5.27;;;9.50;99.90;;;;;;5069613;28;20198;-72
2023/01/08 13:07:50;;;;;;;7.73;5.57;;;9.40;99.90;;;;;;5068741;28;20673;-73
2023/01/08 13:10:40;;;;;;;7.53;5.40;;;9.30;99.90;;;;;;5070539;28;20198;-71